Time;durP1;ratioP1;P1;durP2;ratioP2;P2;SDS_P1;SDS_P2;PMS_P1;PMS_P2;Temp;Humidity;BMP_temperature;BMP_pressure;BME280_temperature;BME280_humidity;BME280_pressure;Samples;Min_cycle;Max_cycle;Signal;HPM_P1;HPM_P2
2022/07/31 00:02:15;;;;;;;1.95;1.60;;;12.00;60.10;;;;;;5071726;28;20225;-38
2022/07/31 00:04:48;;;;;;;1.73;1.55;;;12.00;60.10;;;;;;5072075;28;20215;-38
2022/07/31 00:07:18;;;;;;;1.92;1.60;;;12.00;60.00;;;;;;5072325;28;20205;-44
2022/07/31 00:09:49;;;;;;;2.95;1.77;;;12.00;60.10;;;;;;5072015;28;20206;-38
2022/07/31 00:12:20;;;;;;;1.65;1.55;;;12.10;60.30;;;;;;5071985;28;20191;-42
2022/07/31 00:14:51;;;;;;;1.65;1.50;;;12.10;60.20;;;;;;5072505;28;20214;-42
2022/07/31 00:17:22;;;;;;;1.92;1.70;;;12.10;60.30;;;;;;5072314;28;20197;-40
2022/07/31 00:19:54;;;;;;;3.03;2.08;;;12.10;60.30;;;;;;5072165;28;20199;-45
2022/07/31 00:22:25;;;;;;;1.55;1.45;;;12.10;60.30;;;;;;5071267;28;20227;-45
2022/07/31 00:24:55;;;;;;;2.83;1.90;;;12.10;60.30;;;;;;5071807;28;20218;-41
2022/07/31 00:27:26;;;;;;;2.10;1.63;;;12.10;60.30;;;;;;5071706;28;20187;-43
2022/07/31 00:29:57;;;;;;;2.08;1.50;;;12.10;60.30;;;;;;5072578;28;20210;-42
2022/07/31 00:32:28;;;;;;;1.52;1.42;;;12.10;60.20;;;;;;5072357;28;20852;-50
2022/07/31 00:35:00;;;;;;;2.05;1.52;;;12.10;60.10;;;;;;5071917;28;20698;-42
2022/07/31 00:37:31;;;;;;;1.50;1.40;;;12.20;60.10;;;;;;5072363;28;20199;-38
2022/07/31 00:40:02;;;;;;;2.08;1.63;;;12.20;60.10;;;;;;5071802;28;20623;-41
2022/07/31 00:42:33;;;;;;;2.08;1.75;;;12.20;60.10;;;;;;5071436;28;20301;-47
2022/07/31 00:45:04;;;;;;;1.98;1.40;;;12.20;60.20;;;;;;5071237;28;20214;-42
2022/07/31 00:47:35;;;;;;;2.05;1.67;;;12.20;60.30;;;;;;5087105;28;20187;-43
2022/07/31 00:50:08;;;;;;;2.00;1.40;;;12.20;60.50;;;;;;5090965;28;20194;-51
2022/07/31 00:52:39;;;;;;;1.75;1.65;;;12.20;61.00;;;;;;5073165;28;20281;-45
2022/07/31 00:55:10;;;;;;;1.90;1.70;;;12.20;60.50;;;;;;5071127;28;20222;-39
2022/07/31 00:57:42;;;;;;;1.98;1.60;;;12.20;60.40;;;;;;5083104;28;20217;-37
2022/07/31 01:00:14;;;;;;;2.30;1.95;;;12.20;60.50;;;;;;5071161;28;20198;-38
2022/07/31 01:02:45;;;;;;;2.85;2.08;;;12.20;60.80;;;;;;5070814;28;20655;-37
2022/07/31 01:05:18;;;;;;;2.30;1.85;;;12.30;61.20;;;;;;5069826;28;20198;-37
2022/07/31 01:07:49;;;;;;;2.58;1.92;;;12.30;61.30;;;;;;5071053;28;20191;-38
2022/07/31 01:10:31;;;;;;;3.33;1.90;;;12.30;61.20;;;;;;5071146;28;20231;-38
2022/07/31 01:13:09;;;;;;;2.22;1.83;;;12.40;61.10;;;;;;5070958;28;20198;-38
2022/07/31 01:15:42;;;;;;;3.15;1.77;;;12.40;60.90;;;;;;5071191;28;20240;-38
2022/07/31 01:18:14;;;;;;;2.63;1.92;;;12.40;60.80;;;;;;5069959;28;20195;-45
2022/07/31 01:20:51;;;;;;;2.92;2.10;;;12.40;60.70;;;;;;5069783;28;20198;-40
2022/07/31 01:23:33;;;;;;;2.13;1.92;;;12.40;60.70;;;;;;5050529;28;20223;-37
2022/07/31 01:26:14;;;;;;;2.20;2.00;;;12.40;60.70;;;;;;5052007;28;20551;-37
2022/07/31 01:29:02;;;;;;;3.10;1.90;;;12.40;60.70;;;;;;5070771;28;20199;-38
2022/07/31 01:31:37;;;;;;;2.20;1.85;;;12.40;60.60;;;;;;5071257;28;20198;-38
2022/07/31 01:34:13;;;;;;;2.90;2.10;;;12.50;60.70;;;;;;5070477;28;20211;-38
2022/07/31 01:36:50;;;;;;;2.30;1.90;;;12.50;60.70;;;;;;5071053;28;20658;-45
2022/07/31 01:39:22;;;;;;;2.40;1.90;;;12.50;60.60;;;;;;5070716;28;20194;-40
2022/07/31 01:41:54;;;;;;;2.90;2.00;;;12.50;60.70;;;;;;5070393;28;20769;-40
2022/07/31 01:44:29;;;;;;;3.42;2.22;;;12.50;60.50;;;;;;5070949;28;20265;-38
2022/07/31 01:47:00;;;;;;;3.60;2.13;;;12.50;59.90;;;;;;5069561;28;20198;-38
2022/07/31 01:49:34;;;;;;;5.07;2.13;;;12.60;59.70;;;;;;5069362;28;20199;-40
2022/07/31 01:52:07;;;;;;;3.40;2.17;;;12.60;59.40;;;;;;5070001;28;20198;-38
2022/07/31 01:54:39;;;;;;;3.22;2.00;;;12.60;59.10;;;;;;5069642;28;20218;-38
2022/07/31 01:57:11;;;;;;;2.83;1.95;;;12.70;59.10;;;;;;5069255;28;20213;-39
2022/07/31 01:59:45;;;;;;;3.05;1.85;;;12.70;59.10;;;;;;5069202;28;20198;-41
2022/07/31 02:02:17;;;;;;;2.70;1.98;;;12.80;59.30;;;;;;5068876;28;20221;-38
2022/07/31 02:04:48;;;;;;;1.98;1.60;;;12.70;59.30;;;;;;5069370;28;20215;-38
2022/07/31 02:07:20;;;;;;;3.05;1.77;;;12.80;59.50;;;;;;5069567;28;20198;-38
2022/07/31 02:09:52;;;;;;;2.22;1.85;;;12.80;59.50;;;;;;5069545;28;20202;-38
2022/07/31 02:12:23;;;;;;;2.80;1.67;;;12.80;59.50;;;;;;5068985;28;20195;-38
2022/07/31 02:14:56;;;;;;;3.47;1.83;;;12.90;59.60;;;;;;5069160;28;20211;-38
2022/07/31 02:17:28;;;;;;;2.38;1.75;;;12.90;59.70;;;;;;5069149;28;20206;-38
2022/07/31 02:20:00;;;;;;;2.95;1.98;;;12.90;59.70;;;;;;5068907;28;20654;-40
2022/07/31 02:22:31;;;;;;;2.92;1.90;;;12.90;59.70;;;;;;5072901;28;20283;-38
2022/07/31 02:25:02;;;;;;;2.00;1.80;;;13.00;59.70;;;;;;5073156;28;20231;-37
2022/07/31 02:27:34;;;;;;;3.08;1.80;;;13.00;59.70;;;;;;5073121;28;20191;-38
2022/07/31 02:30:08;;;;;;;2.38;2.00;;;13.00;60.00;;;;;;5073287;28;20202;-37
2022/07/31 02:32:40;;;;;;;2.97;1.70;;;13.10;60.30;;;;;;5073577;28;20195;-37
2022/07/31 02:35:11;;;;;;;2.58;1.67;;;13.10;60.30;;;;;;5073624;28;20222;-39
2022/07/31 02:37:43;;;;;;;3.00;1.73;;;13.20;60.20;;;;;;5073034;28;20203;-39
2022/07/31 02:40:17;;;;;;;4.00;1.70;;;13.20;59.70;;;;;;5072958;28;20203;-44
2022/07/31 02:42:49;;;;;;;2.83;1.70;;;13.30;59.60;;;;;;5072325;28;20694;-37
2022/07/31 02:45:23;;;;;;;2.78;1.83;;;13.30;59.50;;;;;;5072594;28;20208;-37
2022/07/31 02:47:54;;;;;;;2.80;1.80;;;13.30;59.30;;;;;;5071162;28;20282;-37
2022/07/31 02:50:25;;;;;;;2.30;1.90;;;13.30;59.20;;;;;;5072592;28;20205;-39
2022/07/31 02:52:56;;;;;;;2.38;1.67;;;13.40;59.20;;;;;;5072599;28;20671;-37
2022/07/31 02:55:28;;;;;;;2.75;1.60;;;13.40;59.10;;;;;;5072348;28;20195;-37
2022/07/31 02:57:58;;;;;;;2.63;1.70;;;13.40;59.20;;;;;;5071432;28;20694;-44
2022/07/31 03:00:31;;;;;;;3.17;1.70;;;13.40;59.20;;;;;;5072664;28;20195;-44
2022/07/31 03:03:02;;;;;;;1.67;1.33;;;13.40;59.20;;;;;;5072259;28;20581;-45
2022/07/31 03:05:33;;;;;;;2.80;1.67;;;13.40;59.10;;;;;;5072115;28;20265;-46
2022/07/31 03:08:03;;;;;;;1.42;1.30;;;13.50;59.10;;;;;;5072303;28;20204;-37
2022/07/31 03:10:34;;;;;;;1.70;1.40;;;13.50;59.10;;;;;;5072767;28;20268;-39
2022/07/31 03:13:06;;;;;;;1.58;1.27;;;13.50;59.00;;;;;;5072181;28;20209;-40
2022/07/31 03:15:40;;;;;;;2.20;1.80;;;13.60;59.10;;;;;;5072445;28;20563;-37
2022/07/31 03:18:13;;;;;;;1.75;1.42;;;13.60;59.10;;;;;;5072347;28;20202;-38
2022/07/31 03:20:45;;;;;;;2.40;1.70;;;13.60;59.10;;;;;;5072178;28;20199;-37
2022/07/31 03:23:16;;;;;;;2.00;1.48;;;13.60;59.10;;;;;;5071796;28;20233;-37
2022/07/31 03:25:47;;;;;;;1.92;1.73;;;13.60;59.10;;;;;;5071336;28;20445;-37
2022/07/31 03:28:18;;;;;;;1.77;1.50;;;13.60;59.10;;;;;;5071610;28;20206;-37
2022/07/31 03:34:32;;;;;;;1.90;1.50;;;13.70;59.00;;;;;;4994044;28;20269;-38
2022/07/31 03:37:02;;;;;;;1.73;1.50;;;13.70;59.10;;;;;;5071963;28;20191;-37
2022/07/31 03:39:33;;;;;;;2.10;1.60;;;13.70;59.10;;;;;;5072192;28;20780;-37
2022/07/31 03:42:05;;;;;;;2.53;1.50;;;13.70;59.10;;;;;;5071986;28;20215;-39
2022/07/31 03:44:36;;;;;;;1.67;1.58;;;13.80;59.10;;;;;;5072014;28;20222;-39
2022/07/31 03:47:07;;;;;;;2.17;1.25;;;13.80;59.10;;;;;;5071270;28;20725;-37
2022/07/31 03:49:41;;;;;;;1.83;1.50;;;13.80;59.10;;;;;;5071546;28;20191;-41
2022/07/31 03:52:12;;;;;;;2.33;1.40;;;13.80;59.10;;;;;;5070505;28;20206;-37
2022/07/31 03:54:43;;;;;;;1.85;1.40;;;13.90;59.10;;;;;;5068943;28;20308;-37
2022/07/31 03:57:15;;;;;;;2.10;1.40;;;13.90;59.10;;;;;;5071265;28;20564;-38
2022/07/31 03:59:47;;;;;;;2.42;1.40;;;13.90;59.10;;;;;;5071185;28;20195;-37
2022/07/31 04:02:18;;;;;;;1.35;1.25;;;13.90;59.20;;;;;;5071284;28;20226;-39
2022/07/31 04:04:51;;;;;;;1.75;1.40;;;13.90;59.10;;;;;;5071369;28;20222;-37
2022/07/31 04:07:21;;;;;;;1.48;1.38;;;13.90;59.10;;;;;;5070716;28;20199;-37
2022/07/31 04:09:52;;;;;;;2.10;1.50;;;14.00;59.20;;;;;;5071020;28;20268;-37
2022/07/31 04:12:23;;;;;;;1.23;1.13;;;14.00;59.20;;;;;;5070614;28;20191;-37
2022/07/31 04:14:54;;;;;;;1.60;1.30;;;14.00;59.20;;;;;;5070987;28;20214;-37
2022/07/31 04:17:26;;;;;;;1.73;1.20;;;14.00;59.10;;;;;;5071062;28;20197;-38
2022/07/31 04:19:59;;;;;;;2.20;1.48;;;14.10;59.20;;;;;;5071169;28;20195;-37
2022/07/31 04:22:29;;;;;;;1.70;1.40;;;14.10;59.10;;;;;;5071357;28;20230;-37
2022/07/31 04:25:00;;;;;;;1.55;1.20;;;14.10;59.10;;;;;;5071336;28;20230;-37
2022/07/31 04:27:31;;;;;;;2.35;1.70;;;14.20;59.10;;;;;;5071075;28;20191;-44
2022/07/31 04:30:01;;;;;;;1.48;1.20;;;14.20;59.20;;;;;;5070670;28;20199;-37
2022/07/31 04:32:32;;;;;;;1.73;1.50;;;14.20;59.20;;;;;;5062349;28;20206;-37
2022/07/31 04:35:05;;;;;;;1.48;1.30;;;14.20;59.20;;;;;;5067900;28;20218;-38
2022/07/31 04:37:36;;;;;;;1.58;1.23;;;14.20;59.10;;;;;;5069977;28;20682;-38
2022/07/31 04:40:07;;;;;;;2.75;1.30;;;14.20;59.10;;;;;;5070087;28;20602;-37
2022/07/31 04:42:38;;;;;;;1.50;1.30;;;14.20;59.10;;;;;;5070243;28;20849;-37
2022/07/31 04:45:10;;;;;;;1.70;1.13;;;14.30;59.10;;;;;;5068934;28;20234;-41
2022/07/31 04:47:41;;;;;;;1.92;1.52;;;14.30;59.10;;;;;;5070082;28;20773;-40
2022/07/31 04:50:14;;;;;;;1.77;1.40;;;14.30;59.10;;;;;;5070389;28;20195;-37
2022/07/31 04:52:44;;;;;;;1.33;1.20;;;14.30;59.10;;;;;;5070281;28;20562;-39
2022/07/31 04:55:15;;;;;;;1.80;1.35;;;14.30;59.00;;;;;;5069803;28;20591;-37
2022/07/31 04:57:46;;;;;;;2.25;1.33;;;14.30;59.00;;;;;;5070261;28;20681;-37
2022/07/31 05:00:17;;;;;;;1.35;1.23;;;14.40;59.10;;;;;;5070668;28;20199;-37
2022/07/31 05:02:48;;;;;;;2.58;1.50;;;14.40;59.10;;;;;;5070301;28;20214;-49
2022/07/31 05:05:20;;;;;;;2.20;2.00;;;14.40;59.10;;;;;;5069132;28;20221;-37
2022/07/31 05:07:51;;;;;;;3.00;1.77;;;14.40;58.30;;;;;;5070172;28;20199;-37
2022/07/31 05:13:05;;;;;;;1.95;1.65;;;14.40;59.00;;;;;;5035530;28;20198;-37
2022/07/31 05:15:36;;;;;;;2.08;1.60;;;14.30;58.50;;;;;;5070101;28;20206;-37
2022/07/31 05:18:07;;;;;;;1.77;1.67;;;14.30;58.50;;;;;;5070000;28;20198;-36
2022/07/31 05:20:40;;;;;;;2.38;1.80;;;14.30;58.50;;;;;;5069998;28;20195;-37
2022/07/31 05:23:10;;;;;;;2.35;1.73;;;14.30;58.40;;;;;;5070105;28;20721;-37
2022/07/31 05:25:41;;;;;;;2.05;1.67;;;14.30;58.40;;;;;;5070274;28;20202;-39
2022/07/31 05:28:12;;;;;;;1.65;1.55;;;14.30;58.40;;;;;;5069876;28;20202;-37
2022/07/31 05:30:42;;;;;;;1.70;1.60;;;14.30;58.40;;;;;;5069644;28;20195;-41
2022/07/31 05:33:13;;;;;;;2.10;1.50;;;14.30;58.40;;;;;;5070328;28;20239;-45
2022/07/31 05:35:46;;;;;;;1.60;1.50;;;14.30;58.40;;;;;;5069780;28;20736;-38
2022/07/31 05:38:16;;;;;;;1.70;1.58;;;14.30;58.40;;;;;;5069470;28;20199;-37
2022/07/31 05:40:47;;;;;;;2.10;1.52;;;14.30;58.40;;;;;;5069787;28;20202;-36
2022/07/31 05:43:18;;;;;;;1.40;1.30;;;14.30;58.40;;;;;;5069408;28;20709;-37
2022/07/31 05:45:48;;;;;;;1.60;1.50;;;14.30;58.30;;;;;;5069311;28;20227;-40
2022/07/31 05:48:19;;;;;;;1.63;1.50;;;14.30;58.30;;;;;;5069372;28;20195;-37
2022/07/31 05:50:53;;;;;;;1.70;1.60;;;14.30;58.30;;;;;;5069148;28;20207;-36
2022/07/31 05:53:23;;;;;;;1.50;1.40;;;14.20;58.30;;;;;;5068957;28;20206;-36
2022/07/31 05:55:54;;;;;;;1.77;1.50;;;14.20;58.40;;;;;;5069343;28;20666;-37
2022/07/31 05:58:25;;;;;;;1.88;1.75;;;14.20;58.40;;;;;;5069611;28;20193;-37
2022/07/31 06:00:56;;;;;;;1.60;1.50;;;14.20;58.40;;;;;;5069403;28;20202;-37
2022/07/31 06:03:28;;;;;;;2.08;1.88;;;14.20;58.30;;;;;;5069356;28;20233;-36
2022/07/31 06:06:01;;;;;;;1.73;1.63;;;14.20;58.30;;;;;;5069704;28;20204;-36
2022/07/31 06:08:32;;;;;;;1.65;1.50;;;14.20;58.40;;;;;;5069785;28;20191;-37
2022/07/31 06:11:02;;;;;;;2.03;1.70;;;14.20;58.40;;;;;;5069426;28;20286;-37
2022/07/31 06:13:33;;;;;;;2.25;2.05;;;14.20;58.40;;;;;;5069249;28;20218;-40
2022/07/31 06:16:04;;;;;;;1.90;1.73;;;14.20;58.40;;;;;;5069407;28;20198;-38
2022/07/31 06:18:35;;;;;;;1.70;1.60;;;14.10;58.40;;;;;;5069298;28;20206;-39
2022/07/31 06:21:07;;;;;;;1.67;1.58;;;14.10;58.40;;;;;;5069388;28;20205;-37
2022/07/31 06:23:38;;;;;;;1.67;1.58;;;14.10;58.40;;;;;;5069249;28;20226;-37
2022/07/31 06:26:08;;;;;;;1.92;1.80;;;14.10;58.50;;;;;;5069156;28;20207;-37
2022/07/31 06:28:39;;;;;;;1.92;1.73;;;14.00;58.40;;;;;;5068805;28;20191;-37
2022/07/31 06:31:10;;;;;;;1.83;1.63;;;14.00;58.40;;;;;;5069291;28;20699;-43
2022/07/31 06:33:40;;;;;;;2.20;2.00;;;14.00;58.40;;;;;;5069554;28;20214;-43
2022/07/31 06:36:13;;;;;;;1.90;1.80;;;14.00;58.40;;;;;;5069789;28;20195;-37
2022/07/31 06:38:44;;;;;;;2.10;1.90;;;14.00;58.40;;;;;;5069275;28;20199;-37
2022/07/31 06:41:43;;;;;;;2.30;2.10;;;14.00;58.40;;;;;;5069334;28;20191;-37
2022/07/31 06:44:07;;;;;;;2.40;2.20;;;13.90;58.30;;;;;;5068712;28;20325;-37
2022/07/31 06:46:38;;;;;;;2.17;2.08;;;13.90;58.30;;;;;;5068899;28;20201;-38
2022/07/31 06:49:09;;;;;;;2.00;1.80;;;13.90;58.40;;;;;;5068279;28;20333;-38
2022/07/31 06:51:42;;;;;;;1.65;1.55;;;13.90;58.80;;;;;;5069289;28;20198;-37
2022/07/31 06:54:13;;;;;;;1.92;1.70;;;13.80;58.40;;;;;;5069275;28;20211;-37
2022/07/31 06:56:44;;;;;;;1.80;1.70;;;13.80;58.40;;;;;;5068714;28;20654;-37
2022/07/31 06:59:15;;;;;;;1.90;1.80;;;13.80;58.40;;;;;;5068510;28;20562;-37
2022/07/31 07:01:45;;;;;;;1.98;1.77;;;13.80;58.40;;;;;;5069108;28;20198;-38
2022/07/31 07:04:16;;;;;;;2.40;2.20;;;13.70;58.40;;;;;;5068881;28;20231;-42
2022/07/31 07:06:48;;;;;;;2.50;2.30;;;13.70;58.50;;;;;;5068848;28;20202;-38
2022/07/31 07:09:19;;;;;;;2.38;2.17;;;13.70;58.80;;;;;;5071806;28;20195;-37
2022/07/31 07:11:50;;;;;;;3.72;2.40;;;13.70;58.80;;;;;;5071980;28;20202;-37
2022/07/31 07:14:20;;;;;;;3.33;2.10;;;13.70;58.70;;;;;;5071506;28;20740;-38
2022/07/31 07:16:51;;;;;;;2.42;2.22;;;13.70;58.70;;;;;;5072444;28;20198;-38
2022/07/31 07:19:22;;;;;;;2.15;1.95;;;13.80;58.70;;;;;;5072502;28;20654;-41
2022/07/31 07:21:54;;;;;;;2.72;2.33;;;13.70;58.70;;;;;;5071795;28;20285;-37
2022/07/31 07:24:25;;;;;;;2.47;2.28;;;13.70;58.80;;;;;;5071720;28;20230;-38
2022/07/31 07:26:56;;;;;;;2.58;2.30;;;13.70;58.80;;;;;;5072397;28;20671;-37
2022/07/31 07:29:27;;;;;;;3.53;2.33;;;13.70;58.80;;;;;;5071299;28;20571;-37
2022/07/31 07:31:58;;;;;;;2.85;2.55;;;13.60;58.80;;;;;;5071987;28;20194;-37
2022/07/31 07:34:29;;;;;;;2.75;2.33;;;13.60;58.80;;;;;;5071489;28;20309;-46
2022/07/31 07:37:02;;;;;;;2.90;2.60;;;13.60;59.00;;;;;;5071945;28;20286;-37
2022/07/31 07:39:32;;;;;;;2.58;2.33;;;13.60;58.90;;;;;;5071772;28;20784;-37
2022/07/31 07:42:03;;;;;;;2.40;2.20;;;13.60;59.00;;;;;;5071740;28;20191;-37
2022/07/31 07:44:34;;;;;;;2.60;2.20;;;13.60;59.00;;;;;;5088469;28;20222;-37
2022/07/31 07:47:04;;;;;;;3.08;2.55;;;13.50;58.90;;;;;;5092262;28;20197;-37
2022/07/31 07:49:35;;;;;;;2.90;2.70;;;13.50;59.00;;;;;;5092037;28;20198;-38
2022/07/31 07:52:08;;;;;;;3.97;2.60;;;13.50;59.00;;;;;;5077324;28;20190;-37
2022/07/31 07:54:39;;;;;;;3.17;2.60;;;13.50;59.00;;;;;;5071924;28;20215;-37
2022/07/31 07:57:10;;;;;;;2.90;2.47;;;13.50;59.00;;;;;;5071828;28;20194;-38
2022/07/31 07:59:40;;;;;;;2.75;2.47;;;13.40;59.00;;;;;;5071552;28;20227;-39
2022/07/31 08:02:12;;;;;;;2.90;2.38;;;13.50;59.10;;;;;;5071741;28;20195;-37
2022/07/31 08:04:43;;;;;;;4.03;2.50;;;13.40;59.10;;;;;;5071649;28;20642;-37
2022/07/31 08:07:16;;;;;;;2.83;2.30;;;13.40;59.20;;;;;;5071518;28;20195;-37
2022/07/31 08:09:47;;;;;;;4.78;3.03;;;13.40;59.20;;;;;;5071265;28;20733;-40
2022/07/31 08:12:17;;;;;;;3.85;2.80;;;13.40;59.70;;;;;;5070820;28;20191;-37
2022/07/31 08:14:48;;;;;;;2.80;2.60;;;13.50;59.90;;;;;;5070156;28;20219;-37
2022/07/31 08:17:19;;;;;;;3.85;2.63;;;13.50;59.80;;;;;;5071268;28;20195;-37
2022/07/31 08:19:50;;;;;;;3.40;2.40;;;13.50;59.70;;;;;;5071068;28;20287;-38
2022/07/31 08:22:23;;;;;;;3.50;3.15;;;13.40;59.70;;;;;;5071345;28;20734;-37
2022/07/31 08:24:55;;;;;;;3.22;2.63;;;13.50;59.60;;;;;;5071284;28;20666;-37
2022/07/31 08:27:26;;;;;;;2.90;2.47;;;13.40;59.50;;;;;;5070951;28;20405;-42
2022/07/31 08:29:58;;;;;;;3.88;2.72;;;13.50;59.50;;;;;;5070705;28;20240;-40
2022/07/31 08:32:30;;;;;;;4.15;2.55;;;13.40;59.50;;;;;;5070721;28;20201;-38
2022/07/31 08:35:01;;;;;;;3.50;2.38;;;13.40;59.50;;;;;;5070961;28;20215;-38
2022/07/31 08:37:33;;;;;;;2.75;2.55;;;13.40;59.60;;;;;;5071443;28;20206;-37
2022/07/31 08:40:04;;;;;;;2.88;2.45;;;13.30;59.50;;;;;;5070620;28;20604;-37
2022/07/31 08:42:35;;;;;;;3.03;2.60;;;13.40;59.60;;;;;;5070349;28;20206;-37
2022/07/31 08:45:09;;;;;;;2.50;2.28;;;13.30;59.60;;;;;;5069728;28;20313;-38
2022/07/31 08:47:40;;;;;;;2.65;2.28;;;13.30;59.60;;;;;;5070458;28;20199;-37
2022/07/31 08:50:13;;;;;;;2.45;2.17;;;13.30;59.60;;;;;;5070545;28;20277;-37
2022/07/31 08:52:48;;;;;;;3.35;2.50;;;13.30;59.60;;;;;;5070716;28;20858;-37
2022/07/31 08:55:19;;;;;;;3.40;2.38;;;13.30;59.60;;;;;;5070736;28;20218;-37
2022/07/31 08:57:50;;;;;;;2.58;2.38;;;13.30;59.60;;;;;;5069994;28;20191;-37
2022/07/31 09:00:21;;;;;;;3.05;2.42;;;13.30;59.50;;;;;;5070593;28;20198;-37
2022/07/31 09:02:53;;;;;;;2.08;1.88;;;13.20;59.50;;;;;;5069952;28;20650;-38
2022/07/31 09:05:24;;;;;;;2.60;2.40;;;13.30;59.50;;;;;;5069591;28;20223;-38
2022/07/31 09:07:57;;;;;;;3.22;2.40;;;13.20;59.50;;;;;;5069699;28;20195;-37
2022/07/31 09:10:28;;;;;;;2.58;2.38;;;13.20;59.50;;;;;;5070007;28;20194;-37
2022/07/31 09:12:59;;;;;;;3.38;2.60;;;13.20;59.60;;;;;;5070256;28;20202;-37
2022/07/31 09:15:33;;;;;;;2.17;1.98;;;13.20;59.70;;;;;;5090046;28;20736;-37
2022/07/31 09:18:03;;;;;;;2.97;2.22;;;13.20;59.70;;;;;;5071353;28;20277;-37
2022/07/31 09:20:34;;;;;;;2.20;2.00;;;13.20;59.80;;;;;;5070583;28;20612;-51
2022/07/31 09:23:12;;;;;;;2.42;2.22;;;13.20;59.80;;;;;;5064557;28;20719;-44
2022/07/31 09:25:52;;;;;;;2.72;2.17;;;13.10;59.70;;;;;;5069760;28;20221;-53
2022/07/31 09:28:32;;;;;;;2.53;2.30;;;13.10;59.70;;;;;;5070133;28;20187;-47
2022/07/31 09:31:03;;;;;;;2.25;2.05;;;13.10;59.70;;;;;;5085876;28;20284;-37
2022/07/31 09:33:35;;;;;;;3.42;2.30;;;13.10;59.70;;;;;;5073233;28;20210;-47
2022/07/31 09:36:06;;;;;;;2.35;2.15;;;13.10;59.70;;;;;;5059390;28;20200;-37
2022/07/31 09:38:39;;;;;;;2.42;2.00;;;13.10;59.70;;;;;;5050290;28;20211;-47
2022/07/31 09:41:14;;;;;;;2.60;2.15;;;13.10;59.70;;;;;;5066013;28;20195;-40
2022/07/31 09:43:45;;;;;;;2.58;2.28;;;13.10;59.70;;;;;;5070608;28;21501;-37
2022/07/31 09:46:16;;;;;;;3.15;2.00;;;13.00;59.60;;;;;;5070394;28;20583;-39
2022/07/31 09:48:53;;;;;;;2.00;1.80;;;13.00;59.60;;;;;;5070539;28;20206;-51
2022/07/31 09:51:23;;;;;;;2.20;2.00;;;13.00;59.60;;;;;;5070032;28;20206;-43
2022/07/31 09:53:58;;;;;;;2.65;2.13;;;13.00;59.60;;;;;;5069795;28;20575;-44
2022/07/31 09:56:33;;;;;;;2.13;1.80;;;13.00;59.60;;;;;;5069921;28;20194;-39
2022/07/31 09:59:05;;;;;;;2.40;2.20;;;13.00;59.60;;;;;;5070224;28;20194;-38
2022/07/31 10:01:37;;;;;;;3.17;1.95;;;13.00;59.60;;;;;;5070896;28;20191;-37
2022/07/31 10:04:08;;;;;;;2.10;1.90;;;12.90;59.60;;;;;;5069782;28;20227;-41
2022/07/31 10:06:40;;;;;;;2.30;2.10;;;12.90;59.60;;;;;;5070615;28;20567;-38
2022/07/31 10:09:13;;;;;;;2.55;1.88;;;12.90;59.60;;;;;;5069934;28;20659;-37
2022/07/31 10:11:44;;;;;;;1.98;1.83;;;12.90;59.50;;;;;;5067008;28;20196;-42
2022/07/31 10:14:19;;;;;;;2.75;2.00;;;12.90;59.50;;;;;;5049861;28;20714;-38
2022/07/31 10:16:53;;;;;;;2.00;1.80;;;12.90;59.50;;;;;;5088580;28;20185;-37
2022/07/31 10:19:26;;;;;;;2.08;1.80;;;12.90;59.50;;;;;;5089898;28;20198;-47
2022/07/31 10:22:00;;;;;;;1.92;1.73;;;12.90;59.50;;;;;;5076372;28;20570;-38
2022/07/31 10:24:35;;;;;;;2.00;1.80;;;12.80;59.40;;;;;;5069342;28;20847;-47
2022/07/31 10:27:06;;;;;;;1.75;1.65;;;12.80;59.40;;;;;;5050287;28;20199;-51
2022/07/31 10:29:40;;;;;;;2.17;1.95;;;12.80;59.40;;;;;;5054728;28;20210;-42
2022/07/31 10:32:11;;;;;;;2.00;1.67;;;12.80;59.40;;;;;;5049930;28;20199;-47
2022/07/31 10:34:42;;;;;;;2.05;1.88;;;12.70;59.40;;;;;;5050553;28;20239;-46
2022/07/31 10:37:18;;;;;;;1.83;1.55;;;12.80;59.40;;;;;;5069616;28;20547;-46
2022/07/31 10:39:58;;;;;;;2.88;2.20;;;12.80;59.40;;;;;;5069445;28;20199;-42
2022/07/31 10:42:43;;;;;;;1.90;1.70;;;12.70;59.40;;;;;;5070129;28;20230;-52
2022/07/31 10:45:15;;;;;;;2.00;1.80;;;12.70;59.40;;;;;;5074076;28;20222;-46
2022/07/31 10:47:57;;;;;;;2.53;1.88;;;12.70;59.30;;;;;;5073661;28;20202;-41
2022/07/31 10:50:29;;;;;;;1.95;1.70;;;12.80;59.30;;;;;;5073863;28;20187;-41
2022/07/31 10:53:10;;;;;;;1.65;1.52;;;12.70;59.30;;;;;;5073860;28;20713;-40
2022/07/31 10:55:43;;;;;;;2.60;1.90;;;12.70;59.90;;;;;;5074019;28;20289;-40
2022/07/31 10:58:15;;;;;;;2.03;1.75;;;12.70;59.30;;;;;;5072405;28;20191;-50
2022/07/31 11:00:46;;;;;;;1.83;1.60;;;12.70;59.30;;;;;;5074180;28;20596;-48
2022/07/31 11:03:18;;;;;;;1.90;1.80;;;12.70;59.30;;;;;;5073714;28;20199;-38
2022/07/31 11:06:00;;;;;;;1.98;1.70;;;12.70;59.30;;;;;;5071816;28;20231;-38
2022/07/31 11:08:30;;;;;;;1.50;1.40;;;12.60;59.20;;;;;;5071397;28;20195;-37
2022/07/31 11:11:03;;;;;;;2.42;2.17;;;12.60;59.30;;;;;;5072002;28;20191;-38
2022/07/31 11:13:34;;;;;;;3.67;2.15;;;12.60;59.30;;;;;;5072012;28;20214;-37
2022/07/31 11:16:08;;;;;;;2.53;1.98;;;12.60;59.30;;;;;;5072055;28;20563;-37
2022/07/31 11:18:38;;;;;;;2.17;1.73;;;12.60;59.30;;;;;;5072631;28;20201;-37
2022/07/31 11:21:11;;;;;;;1.85;1.70;;;12.60;59.30;;;;;;5072311;28;20209;-38
2022/07/31 11:23:43;;;;;;;2.72;1.95;;;12.60;59.30;;;;;;5072028;28;20573;-38
2022/07/31 11:26:18;;;;;;;2.15;1.92;;;12.60;59.20;;;;;;5071999;28;20231;-38
2022/07/31 11:28:49;;;;;;;2.65;1.80;;;12.60;59.20;;;;;;5072240;28;20194;-42
2022/07/31 11:31:20;;;;;;;2.30;1.92;;;12.60;59.20;;;;;;5072031;28;20195;-38
2022/07/31 11:33:51;;;;;;;2.25;1.75;;;12.60;59.20;;;;;;5071709;28;20249;-37
2022/07/31 11:36:28;;;;;;;2.42;2.05;;;12.60;59.20;;;;;;5071980;28;20225;-37
2022/07/31 11:38:59;;;;;;;3.05;2.20;;;12.50;59.20;;;;;;5071406;28;20291;-37
2022/07/31 11:41:32;;;;;;;1.83;1.63;;;12.50;59.20;;;;;;5071921;28;20647;-38
2022/07/31 11:44:03;;;;;;;2.88;1.92;;;12.50;59.20;;;;;;5071791;28;20724;-37
2022/07/31 11:46:36;;;;;;;1.67;1.55;;;12.50;59.20;;;;;;5072153;28;20194;-38
2022/07/31 11:49:07;;;;;;;1.98;1.77;;;12.50;59.20;;;;;;5071909;28;20219;-37
2022/07/31 11:51:38;;;;;;;2.28;1.77;;;12.50;59.20;;;;;;5071779;28;20566;-37
2022/07/31 11:54:09;;;;;;;1.98;1.77;;;12.50;59.20;;;;;;5071234;28;20229;-38
2022/07/31 11:56:41;;;;;;;2.45;1.90;;;12.50;59.30;;;;;;5071617;28;20195;-38
2022/07/31 11:59:12;;;;;;;2.17;1.98;;;12.50;59.20;;;;;;5071716;28;20194;-41
2022/07/31 12:01:43;;;;;;;1.88;1.60;;;12.50;59.20;;;;;;5071168;28;20570;-37
2022/07/31 12:04:18;;;;;;;2.50;1.67;;;12.50;59.10;;;;;;5071102;28;20215;-42
2022/07/31 12:06:49;;;;;;;2.17;1.83;;;12.40;59.10;;;;;;5071714;28;20201;-38
2022/07/31 12:09:20;;;;;;;3.58;1.58;;;12.40;59.00;;;;;;5072203;28;20195;-37
2022/07/31 12:11:53;;;;;;;1.77;1.67;;;12.40;59.00;;;;;;5071825;28;20213;-37
2022/07/31 12:14:32;;;;;;;2.13;1.60;;;12.40;59.00;;;;;;5071468;28;20215;-37
2022/07/31 12:17:02;;;;;;;2.08;1.75;;;12.40;59.10;;;;;;5051279;28;20206;-38
2022/07/31 12:19:34;;;;;;;1.88;1.60;;;12.40;59.00;;;;;;5050999;28;20199;-37
2022/07/31 12:22:15;;;;;;;2.47;1.75;;;12.40;59.10;;;;;;5065534;28;20218;-37
2022/07/31 12:24:46;;;;;;;1.58;1.45;;;12.40;59.10;;;;;;5071392;28;20218;-37
2022/07/31 12:27:20;;;;;;;1.75;1.63;;;12.30;59.00;;;;;;5071308;28;20678;-38
2022/07/31 12:29:51;;;;;;;2.05;1.70;;;12.30;59.00;;;;;;5070866;28;20194;-37
2022/07/31 12:32:27;;;;;;;2.10;1.73;;;12.30;59.00;;;;;;5071476;28;20541;-38
2022/07/31 12:35:05;;;;;;;1.90;1.70;;;12.30;59.00;;;;;;5071020;28;20221;-37
2022/07/31 12:37:45;;;;;;;1.70;1.60;;;12.30;59.00;;;;;;5071199;28;20255;-37
2022/07/31 12:40:27;;;;;;;1.85;1.52;;;12.30;58.90;;;;;;5070536;28;20547;-38
2022/07/31 12:43:00;;;;;;;1.67;1.58;;;12.30;58.90;;;;;;5071113;28;20206;-38
2022/07/31 12:45:36;;;;;;;1.75;1.40;;;12.30;58.90;;;;;;5070230;28;20223;-41
2022/07/31 12:48:07;;;;;;;2.50;2.00;;;12.30;58.90;;;;;;5069926;28;20190;-41
2022/07/31 12:50:38;;;;;;;1.60;1.50;;;12.30;58.90;;;;;;5070465;28;20197;-38
2022/07/31 12:53:09;;;;;;;1.60;1.50;;;12.20;58.90;;;;;;5070776;28;20286;-38
2022/07/31 12:55:39;;;;;;;1.73;1.40;;;12.20;58.90;;;;;;5070833;28;20558;-38
2022/07/31 12:58:12;;;;;;;1.90;1.60;;;12.20;58.80;;;;;;5070065;28;20183;-38
2022/07/31 13:00:43;;;;;;;3.05;1.67;;;12.20;58.80;;;;;;5058503;28;20664;-37
2022/07/31 13:03:17;;;;;;;2.30;1.50;;;12.20;58.80;;;;;;5070488;28;20234;-38
2022/07/31 13:05:47;;;;;;;1.92;1.50;;;12.20;58.90;;;;;;5069229;28;20593;-40
2022/07/31 13:08:18;;;;;;;1.80;1.70;;;12.20;58.90;;;;;;5070156;28;20202;-38
2022/07/31 13:10:49;;;;;;;1.83;1.45;;;12.20;58.90;;;;;;5070212;28;20841;-38
2022/07/31 13:13:22;;;;;;;1.90;1.60;;;12.20;58.90;;;;;;5070191;28;20198;-38
2022/07/31 13:15:53;;;;;;;2.50;1.58;;;12.20;58.90;;;;;;5069972;28;20197;-42
2022/07/31 13:18:23;;;;;;;2.13;1.77;;;12.20;58.80;;;;;;5070232;28;20206;-38
2022/07/31 13:20:54;;;;;;;1.85;1.60;;;12.20;58.80;;;;;;5070353;28;20568;-37